Time;durP1;ratioP1;P1;durP2;ratioP2;P2;SDS_P1;SDS_P2;PMS_P1;PMS_P2;Temp;Humidity;BMP_temperature;BMP_pressure;BME280_temperature;BME280_humidity;BME280_pressure;Samples;Min_cycle;Max_cycle;Signal;HPM_P1;HPM_P2
2023/07/06 00:00:17;;;;;;;6.95;3.83;;;537.70;2406.40;;;;;;5094700;28;20028;-79
2023/07/06 00:02:43;;;;;;;6.75;4.07;;;537.80;2406.40;;;;;;5093652;28;20024;-79
2023/07/06 00:05:09;;;;;;;6.70;3.63;;;537.70;2406.40;;;;;;5093222;28;20380;-79
2023/07/06 00:07:36;;;;;;;10.32;4.18;;;537.60;2406.40;;;;;;5093487;28;20039;-79
2023/07/06 00:10:04;;;;;;;7.97;3.95;;;537.60;2406.40;;;;;;5094950;28;20497;-79
2023/07/06 00:12:30;;;;;;;8.68;4.25;;;537.60;2406.40;;;;;;5093096;28;20423;-78
2023/07/06 00:14:56;;;;;;;9.50;4.28;;;537.60;2406.40;;;;;;5093795;28;20460;-79
2023/07/06 00:17:22;;;;;;;9.10;5.18;;;537.60;2406.40;;;;;;5093129;28;20035;-79
2023/07/06 00:19:48;;;;;;;12.13;5.53;;;512.90;2380.80;;;;;;5092943;28;20039;-79
2023/07/06 00:22:15;;;;;;;8.57;5.00;;;512.90;2380.80;;;;;;5093201;28;20024;-78
2023/07/06 00:24:42;;;;;;;9.82;4.72;;;512.80;2380.80;;;;;;5094526;28;20367;-79
2023/07/06 00:27:08;;;;;;;8.63;5.80;;;512.80;2380.80;;;;;;5093030;28;20036;-79
2023/07/06 00:29:35;;;;;;;9.80;6.20;;;512.80;2380.80;;;;;;5094539;28;20107;-79
2023/07/06 00:32:15;;;;;;;11.23;7.50;;;512.90;2380.80;;;;;;5094211;28;20066;-78
2023/07/06 00:34:45;;;;;;;13.07;7.03;;;512.90;2380.80;;;;;;5092932;28;20467;-79
2023/07/06 00:37:14;;;;;;;6.68;4.93;;;512.80;2380.80;;;;;;5093937;28;20047;-79
2023/07/06 00:39:40;;;;;;;7.18;4.72;;;512.60;2380.80;;;;;;5092619;28;20410;-79
2023/07/06 00:42:14;;;;;;;6.45;5.13;;;512.50;2380.80;;;;;;5092910;28;20069;-79
2023/07/06 00:44:57;;;;;;;6.60;4.00;;;512.50;2380.80;;;;;;5093000;28;20127;-79
2023/07/06 00:47:48;;;;;;;5.65;3.70;;;512.50;2380.80;;;;;;5092633;28;20028;-80
2023/07/06 00:50:21;;;;;;;5.97;3.95;;;512.50;2380.80;;;;;;5089291;28;20488;-80
2023/07/06 00:53:16;;;;;;;7.53;4.25;;;512.40;2380.80;;;;;;5092809;28;20028;-80
2023/07/06 00:55:42;;;;;;;7.95;4.53;;;512.40;2380.80;;;;;;5091266;28;20070;-80
2023/07/06 00:58:31;;;;;;;7.07;4.47;;;512.50;2380.80;;;;;;5091551;28;20036;-79
2023/07/06 01:01:01;;;;;;;10.52;5.90;;;512.50;2380.80;;;;;;5074422;28;20043;-79
2023/07/06 01:03:27;;;;;;;6.20;4.82;;;512.50;2380.80;;;;;;5091777;28;20024;-79
2023/07/06 01:05:58;;;;;;;7.70;5.70;;;512.40;2380.80;;;;;;5095989;28;20042;-79
2023/07/06 01:08:25;;;;;;;9.45;4.63;;;512.40;2380.80;;;;;;5100280;28;20048;-78
2023/07/06 01:10:54;;;;;;;6.30;4.60;;;512.40;2380.80;;;;;;5080107;28;20412;-79
2023/07/06 01:13:24;;;;;;;6.00;4.85;;;512.50;2380.80;;;;;;5077791;28;20427;-79
2023/07/06 01:15:59;;;;;;;7.13;4.90;;;512.50;2380.80;;;;;;5074036;28;20028;-79
2023/07/06 01:18:51;;;;;;;7.35;5.00;;;512.50;2380.80;;;;;;5074459;28;20488;-79
2023/07/06 01:21:20;;;;;;;10.10;4.88;;;512.60;2380.80;;;;;;5074528;28;20055;-79
2023/07/06 01:24:05;;;;;;;9.93;5.22;;;512.70;2380.80;;;;;;5091020;28;20024;-79
2023/07/06 01:26:54;;;;;;;7.53;5.03;;;512.70;2380.80;;;;;;5076567;28;20036;-79
2023/07/06 01:30:01;;;;;;;10.23;4.57;;;512.60;2380.80;;;;;;5077998;28;20100;-79
2023/07/06 01:32:32;;;;;;;7.32;4.55;;;512.60;2380.80;;;;;;5060746;28;20036;-79
2023/07/06 01:35:07;;;;;;;6.50;4.72;;;512.50;2380.80;;;;;;5096424;28;20028;-79
2023/07/06 01:37:37;;;;;;;8.93;5.18;;;512.50;2380.80;;;;;;5095882;28;20067;-79
2023/07/06 01:40:09;;;;;;;13.80;5.32;;;512.30;2380.80;;;;;;5097733;28;20103;-79
2023/07/06 01:42:36;;;;;;;7.63;5.05;;;512.00;2380.80;;;;;;5096167;28;20024;-79
2023/07/06 01:45:17;;;;;;;7.63;5.05;;;512.10;2380.80;;;;;;5097732;28;20353;-79
2023/07/06 01:47:47;;;;;;;9.75;4.60;;;512.20;2380.80;;;;;;5096370;28;20055;-79
2023/07/06 01:50:17;;;;;;;9.60;5.07;;;512.40;2380.80;;;;;;5095767;28;20028;-79
2023/07/06 01:53:00;;;;;;;7.25;5.10;;;512.40;2380.80;;;;;;5096101;28;20055;-79
2023/07/06 01:55:27;;;;;;;;;;;512.20;2380.80;;;;;;5097823;28;20025;-79
2023/07/06 01:58:26;;;;;;;12.35;5.68;;;512.40;2380.80;;;;;;5096963;28;19919;-79
2023/07/06 02:01:15;;;;;;;10.25;5.60;;;512.30;2380.80;;;;;;5095920;28;20035;-79
2023/07/06 02:03:41;;;;;;;8.48;5.35;;;512.10;2380.80;;;;;;5095765;28;20028;-79
2023/07/06 02:06:10;;;;;;;14.00;5.97;;;512.00;2380.80;;;;;;5095814;28;20032;-79
2023/07/06 02:08:41;;;;;;;10.95;5.53;;;487.20;2380.80;;;;;;5096711;28;20484;-79
2023/07/06 02:11:11;;;;;;;10.10;4.88;;;487.30;2380.80;;;;;;5095571;28;20125;-80
2023/07/06 02:13:37;;;;;;;10.75;5.10;;;512.00;2380.80;;;;;;5095797;28;20360;-79
2023/07/06 02:16:05;;;;;;;9.57;5.13;;;512.10;2380.80;;;;;;5095628;28;20028;-79
2023/07/06 02:18:33;;;;;;;10.10;5.00;;;512.00;2380.80;;;;;;5095277;28;20493;-79
2023/07/06 02:21:01;;;;;;;9.55;4.78;;;487.30;2380.80;;;;;;5096908;28;20353;-79
2023/07/06 02:23:27;;;;;;;9.65;4.88;;;512.10;2380.80;;;;;;5096830;28;20085;-79
2023/07/06 02:25:56;;;;;;;12.10;4.80;;;512.10;2380.80;;;;;;5095190;28;20020;-79
2023/07/06 02:28:23;;;;;;;12.60;5.20;;;512.10;2380.80;;;;;;5095460;28;20035;-79
2023/07/06 02:30:50;;;;;;;15.48;4.72;;;512.10;2380.80;;;;;;5094325;28;20418;-79
2023/07/06 02:33:17;;;;;;;10.00;4.63;;;512.20;2380.80;;;;;;5095921;28;20470;-79
2023/07/06 02:35:46;;;;;;;13.70;4.75;;;512.10;2380.80;;;;;;5112276;28;20048;-79
2023/07/06 02:38:17;;;;;;;7.70;4.70;;;512.10;2380.80;;;;;;5111398;28;20029;-79
2023/07/06 02:40:43;;;;;;;8.48;5.53;;;512.10;2380.80;;;;;;5111985;28;20032;-79
2023/07/06 02:43:09;;;;;;;11.90;5.80;;;512.10;2380.80;;;;;;5112236;28;20020;-79
2023/07/06 02:45:36;;;;;;;18.63;6.45;;;512.00;2380.80;;;;;;5096076;28;20024;-79
2023/07/06 02:48:04;;;;;;;14.85;6.55;;;487.30;2380.80;;;;;;5096327;28;20046;-79
2023/07/06 02:50:30;;;;;;;10.63;5.63;;;487.30;2380.80;;;;;;5112073;28;20035;-79
2023/07/06 02:52:56;;;;;;;13.18;5.72;;;487.30;2380.80;;;;;;5095995;28;20093;-79
2023/07/06 02:55:26;;;;;;;13.38;6.00;;;512.00;2380.80;;;;;;5111097;28;20036;-79
2023/07/06 02:57:52;;;;;;;19.90;5.45;;;487.30;2380.80;;;;;;5096185;28;20028;-79
2023/07/06 03:00:18;;;;;;;12.50;6.10;;;512.00;2380.80;;;;;;5084437;28;20032;-79
2023/07/06 03:02:45;;;;;;;14.00;5.78;;;512.00;2380.80;;;;;;5073793;28;20082;-79
2023/07/06 03:05:11;;;;;;;11.35;6.80;;;487.30;2380.80;;;;;;5075989;28;20107;-79
2023/07/06 03:07:38;;;;;;;10.15;6.05;;;487.30;2380.80;;;;;;5075598;28;20032;-79
2023/07/06 03:10:07;;;;;;;12.43;5.93;;;487.30;2380.80;;;;;;5075965;28;20040;-79
2023/07/06 03:12:37;;;;;;;16.08;7.28;;;512.00;2380.80;;;;;;5074462;28;20027;-79
2023/07/06 03:15:14;;;;;;;16.30;7.00;;;512.00;2380.80;;;;;;5074068;28;20035;-79
2023/07/06 03:17:41;;;;;;;9.73;6.75;;;512.00;2380.80;;;;;;5075654;28;20154;-79
2023/07/06 03:20:13;;;;;;;11.10;6.28;;;487.30;2380.80;;;;;;5074749;28;20035;-79
2023/07/06 03:22:39;;;;;;;12.23;6.53;;;487.30;2380.80;;;;;;5075578;28;20460;-79
2023/07/06 03:25:05;;;;;;;14.80;7.25;;;512.10;2380.80;;;;;;5075431;28;20028;-79
2023/07/06 03:27:31;;;;;;;10.55;6.22;;;512.10;2380.80;;;;;;5075069;28;20108;-79
2023/07/06 03:29:57;;;;;;;12.88;6.07;;;487.30;2380.80;;;;;;5074166;28;20108;-79
2023/07/06 03:32:25;;;;;;;9.88;5.65;;;487.20;2380.80;;;;;;5073990;28;20451;-79
2023/07/06 03:34:50;;;;;;;9.07;5.65;;;487.00;2380.80;;;;;;5075280;28;20028;-79
2023/07/06 03:37:18;;;;;;;9.50;5.60;;;487.00;2380.80;;;;;;5075097;28;20107;-79
2023/07/06 03:39:47;;;;;;;8.55;6.10;;;487.10;2380.80;;;;;;5074820;28;20066;-79
2023/07/06 03:42:14;;;;;;;15.52;6.20;;;487.00;2380.80;;;;;;5074544;28;20020;-79
2023/07/06 03:44:40;;;;;;;12.27;7.15;;;486.70;2380.80;;;;;;5073751;28;20050;-78
2023/07/06 03:47:06;;;;;;;10.60;6.55;;;486.50;2380.80;;;;;;5073657;28;20460;-79
2023/07/06 03:49:34;;;;;;;14.13;7.00;;;486.40;2380.80;;;;;;5072162;28;20464;-79
2023/07/06 03:52:03;;;;;;;13.07;7.10;;;461.70;2380.80;;;;;;5073606;28;20020;-79
2023/07/06 03:54:31;;;;;;;14.13;6.43;;;486.50;2124.80;;;;;;5074771;28;20051;-79
2023/07/06 03:56:57;;;;;;;13.75;6.60;;;486.70;2380.80;;;;;;5074281;28;20067;-79
2023/07/06 03:59:24;;;;;;;18.38;8.55;;;486.80;2380.80;;;;;;5073579;28;20431;-79
2023/07/06 04:01:49;;;;;;;13.82;6.82;;;487.00;2380.80;;;;;;5074126;28;20025;-79
2023/07/06 04:04:18;;;;;;;13.93;7.80;;;486.60;2380.80;;;;;;5098055;28;20024;-78
2023/07/06 04:06:45;;;;;;;17.48;8.70;;;486.80;2380.80;;;;;;5075643;28;20035;-79
2023/07/06 04:09:11;;;;;;;13.18;10.13;;;486.80;2380.80;;;;;;5072939;28;20137;-79
2023/07/06 04:11:37;;;;;;;18.48;13.45;;;487.00;2380.80;;;;;;5074249;28;20421;-79
2023/07/06 04:14:03;;;;;;;19.40;14.10;;;487.00;2380.80;;;;;;5074405;28;20020;-79
2023/07/06 04:16:29;;;;;;;15.63;12.23;;;487.10;2380.80;;;;;;5072627;28;20020;-79
2023/07/06 04:18:55;;;;;;;21.00;13.43;;;487.10;2380.80;;;;;;5073059;28;20452;-79
2023/07/06 04:21:22;;;;;;;16.08;11.88;;;487.10;2380.80;;;;;;5072993;28;20123;-79
2023/07/06 04:23:48;;;;;;;24.73;14.32;;;487.10;2380.80;;;;;;5072974;28;20393;-79
2023/07/06 04:26:16;;;;;;;18.48;13.20;;;487.10;2380.80;;;;;;5072956;28;20035;-79
2023/07/06 04:28:42;;;;;;;18.65;12.60;;;486.90;2380.80;;;;;;5074532;28;20439;-79
2023/07/06 04:31:10;;;;;;;15.45;11.73;;;487.00;2227.20;;;;;;5072567;28;20029;-79
2023/07/06 04:33:36;;;;;;;18.63;12.13;;;487.10;2380.80;;;;;;5073755;28;20027;-79
2023/07/06 04:36:02;;;;;;;17.65;12.50;;;487.10;2380.80;;;;;;5074052;28;20104;-79
2023/07/06 04:38:32;;;;;;;27.33;14.38;;;487.20;2380.80;;;;;;5073213;28;20404;-79
2023/07/06 04:40:59;;;;;;;17.30;12.88;;;487.20;2380.80;;;;;;5072757;28;20021;-79
2023/07/06 04:43:26;;;;;;;20.30;13.10;;;487.10;2380.80;;;;;;5072662;28;20024;-79
2023/07/06 04:45:55;;;;;;;18.45;12.18;;;487.00;2380.80;;;;;;5072295;28;20491;-79
2023/07/06 04:48:22;;;;;;;18.45;12.95;;;487.20;2380.80;;;;;;5074207;28;20111;-79
2023/07/06 04:50:52;;;;;;;26.20;12.88;;;487.20;2380.80;;;;;;5072564;28;20025;-80
2023/07/06 04:53:18;;;;;;;16.00;12.30;;;487.20;2380.80;;;;;;5072316;28;20483;-79
2023/07/06 04:55:45;;;;;;;20.48;12.80;;;487.30;2380.80;;;;;;5073545;28;20100;-79
2023/07/06 04:58:11;;;;;;;15.85;12.25;;;487.30;2380.80;;;;;;5072467;28;20047;-79
2023/07/06 05:00:39;;;;;;;15.27;11.75;;;487.30;2380.80;;;;;;5072755;28;20020;-79
2023/07/06 05:03:06;;;;;;;18.90;14.45;;;512.00;2380.80;;;;;;5073482;28;20078;-80
2023/07/06 05:05:40;;;;;;;19.02;12.38;;;512.00;2380.80;;;;;;5073093;28;20025;-79
2023/07/06 05:08:07;;;;;;;12.32;10.00;;;512.10;2380.80;;;;;;5073413;28;20091;-79
2023/07/06 05:10:34;;;;;;;14.35;11.50;;;512.30;2380.80;;;;;;5072393;28;20035;-79
2023/07/06 05:13:01;;;;;;;15.75;11.35;;;512.10;2380.80;;;;;;5072029;28;20024;-79
2023/07/06 05:15:27;;;;;;;21.77;14.07;;;512.20;2380.80;;;;;;5073296;28;20028;-79
2023/07/06 05:17:54;;;;;;;23.83;14.55;;;512.20;2380.80;;;;;;5071899;28;20033;-79
2023/07/06 05:20:20;;;;;;;19.85;14.93;;;512.30;2380.80;;;;;;5073188;28;20026;-79
2023/07/06 05:22:48;;;;;;;22.77;14.68;;;512.40;2380.80;;;;;;5073482;28;20107;-76
2023/07/06 05:25:19;;;;;;;22.10;15.13;;;512.30;2380.80;;;;;;5073800;28;20025;-77
2023/07/06 05:27:45;;;;;;;14.90;9.85;;;512.40;2380.80;;;;;;5071894;28;20063;-76
2023/07/06 05:30:11;;;;;;;14.70;10.10;;;512.90;2380.80;;;;;;5072124;28;20384;-77
2023/07/06 05:32:37;;;;;;;17.77;9.68;;;512.60;2380.80;;;;;;5073037;28;20029;-77
2023/07/06 05:35:04;;;;;;;17.50;10.32;;;512.50;2380.80;;;;;;5071768;28;20024;-77
2023/07/06 05:37:29;;;;;;;23.55;10.25;;;512.60;2380.80;;;;;;5071893;28;20035;-79
2023/07/06 05:39:55;;;;;;;13.75;9.18;;;512.80;2380.80;;;;;;5073288;28;20017;-79
2023/07/06 05:42:21;;;;;;;16.25;8.48;;;512.90;2380.80;;;;;;5071734;28;20484;-79
2023/07/06 05:44:47;;;;;;;13.57;8.07;;;512.90;2380.80;;;;;;5072217;28;20379;-77
2023/07/06 05:47:13;;;;;;;13.45;8.10;;;537.70;2406.40;;;;;;5071935;28;20426;-77
2023/07/06 05:49:39;;;;;;;12.45;7.13;;;537.80;2406.40;;;;;;5072997;28;20037;-78
2023/07/06 05:52:06;;;;;;;8.55;5.65;;;537.90;2406.40;;;;;;5072922;28;20020;-77
2023/07/06 05:54:32;;;;;;;8.43;5.40;;;537.90;2406.40;;;;;;5072915;28;20056;-77
2023/07/06 05:57:02;;;;;;;7.38;5.15;;;538.00;2406.40;;;;;;5071781;28;20369;-77
2023/07/06 05:59:29;;;;;;;8.27;5.45;;;538.00;2406.40;;;;;;5071920;28;20119;-77
2023/07/06 06:01:56;;;;;;;7.93;6.18;;;538.10;2406.40;;;;;;5072769;28;20053;-77
2023/07/06 06:04:22;;;;;;;10.07;5.93;;;538.10;2406.40;;;;;;5073074;28;20021;-78
2023/07/06 06:06:51;;;;;;;9.20;6.07;;;538.10;2406.40;;;;;;5073088;28;20381;-77
2023/07/06 06:09:17;;;;;;;9.05;5.57;;;538.20;2406.40;;;;;;5071130;28;20072;-78
2023/07/06 06:11:43;;;;;;;9.15;5.25;;;538.30;2406.40;;;;;;5071723;28;20443;-78
2023/07/06 06:14:08;;;;;;;8.55;5.57;;;538.30;2406.40;;;;;;5074812;28;20082;-78
2023/07/06 06:16:35;;;;;;;9.35;5.88;;;538.30;2406.40;;;;;;5074907;28;20029;-78
2023/07/06 06:19:01;;;;;;;8.45;5.60;;;538.40;2406.40;;;;;;5075301;28;20036;-78
2023/07/06 06:21:31;;;;;;;10.75;5.70;;;538.50;2406.40;;;;;;5076559;28;20079;-78
2023/07/06 06:23:57;;;;;;;7.18;5.43;;;538.50;2406.40;;;;;;5076152;28;20025;-78
2023/07/06 06:26:24;;;;;;;8.00;5.22;;;563.30;2432.00;;;;;;5076302;28;20054;-78
2023/07/06 06:28:50;;;;;;;11.23;5.90;;;563.40;2432.00;;;;;;5074789;28;20036;-78
2023/07/06 06:31:16;;;;;;;8.45;5.78;;;563.40;2432.00;;;;;;5074717;28;20032;-78
2023/07/06 06:33:44;;;;;;;8.05;5.13;;;563.50;2432.00;;;;;;5076294;28;20028;-78
2023/07/06 06:36:11;;;;;;;10.15;6.05;;;563.60;2432.00;;;;;;5075029;28;20040;-78
2023/07/06 06:38:37;;;;;;;8.50;5.32;;;563.60;2432.00;;;;;;5075855;28;20043;-78
2023/07/06 06:41:07;;;;;;;10.30;5.35;;;563.70;2432.00;;;;;;5074836;28;20025;-78
2023/07/06 06:43:37;;;;;;;6.72;5.60;;;563.80;2432.00;;;;;;5074322;28;20033;-78
2023/07/06 06:46:03;;;;;;;9.50;5.30;;;564.00;2432.00;;;;;;5074759;28;20032;-79
2023/07/06 06:48:29;;;;;;;8.63;5.88;;;564.10;2432.00;;;;;;5076003;28;20024;-80
2023/07/06 06:50:56;;;;;;;7.88;6.22;;;588.90;2432.00;;;;;;5098627;28;20033;-80
2023/07/06 06:53:22;;;;;;;8.20;6.30;;;589.00;2432.00;;;;;;5079168;28;20487;-80
2023/07/06 06:55:48;;;;;;;8.95;6.80;;;589.00;2432.00;;;;;;5074767;28;20044;-81
2023/07/06 06:58:15;;;;;;;9.27;6.13;;;589.00;2432.00;;;;;;5074259;28;20082;-81
2023/07/06 07:00:41;;;;;;;8.50;5.63;;;589.10;2432.00;;;;;;5072865;28;20032;-81
2023/07/06 07:03:11;;;;;;;10.68;6.40;;;589.30;2432.00;;;;;;5074475;28;20027;-81
2023/07/06 07:05:37;;;;;;;10.20;6.68;;;589.20;2432.00;;;;;;5075444;28;20066;-81
2023/07/06 07:08:03;;;;;;;9.07;5.97;;;589.30;2432.00;;;;;;5075232;28;20108;-81
2023/07/06 07:10:29;;;;;;;10.05;6.88;;;589.30;2432.00;;;;;;5091335;28;20155;-81
2023/07/06 07:12:55;;;;;;;9.43;6.40;;;589.40;2432.00;;;;;;5075022;28;20025;-81
2023/07/06 07:15:21;;;;;;;11.23;6.43;;;;;;;;;;5075556;28;20031;-81
2023/07/06 07:17:47;;;;;;;10.10;6.07;;;589.60;2432.00;;;;;;5091078;28;20028;-81
2023/07/06 07:20:13;;;;;;;10.55;5.93;;;589.70;2432.00;;;;;;5090744;28;20380;-81
2023/07/06 07:22:40;;;;;;;11.57;6.90;;;589.60;2432.00;;;;;;5090961;28;20059;-81
2023/07/06 07:25:07;;;;;;;11.77;6.15;;;589.70;2432.00;;;;;;5075110;28;20514;-81
2023/07/06 07:27:35;;;;;;;12.27;6.43;;;614.50;2432.00;;;;;;5074686;28;20468;-83
2023/07/06 07:30:04;;;;;;;14.82;6.10;;;614.40;2432.00;;;;;;5098841;28;20089;-81
2023/07/06 07:32:30;;;;;;;8.25;6.20;;;614.40;2432.00;;;;;;5110758;28;20028;-82
2023/07/06 07:34:58;;;;;;;9.07;6.20;;;614.40;2432.00;;;;;;5111356;28;20047;-82
2023/07/06 07:37:25;;;;;;;14.88;7.15;;;614.50;2432.00;;;;;;5111172;28;20433;-82
2023/07/06 07:39:51;;;;;;;8.52;6.20;;;614.60;2432.00;;;;;;5095072;28;20024;-83
2023/07/06 07:42:19;;;;;;;11.23;5.78;;;614.80;2432.00;;;;;;5111096;28;20387;-84
2023/07/06 07:44:45;;;;;;;10.75;6.63;;;614.90;2432.00;;;;;;5111083;28;20024;-84
2023/07/06 07:47:12;;;;;;;10.52;6.55;;;615.10;2432.00;;;;;;5110641;28;20486;-85
2023/07/06 07:49:38;;;;;;;18.67;6.85;;;614.90;2432.00;;;;;;5110956;28;20032;-83
2023/07/06 07:52:05;;;;;;;12.18;6.75;;;615.20;2432.00;;;;;;5095222;28;20016;-83
2023/07/06 07:54:31;;;;;;;8.98;6.30;;;615.20;2432.00;;;;;;5110487;28;20129;-81
2023/07/06 07:56:57;;;;;;;15.98;8.57;;;;;;;;;;5111001;28;20119;-81
2023/07/06 07:59:25;;;;;;;10.45;7.25;;;640.60;2432.00;;;;;;5094952;28;20055;-82
2023/07/06 08:01:52;;;;;;;11.40;6.40;;;640.60;2432.00;;;;;;5110320;28;20123;-79
2023/07/06 08:04:20;;;;;;;19.13;6.88;;;640.60;2432.00;;;;;;5094921;28;20031;-82
2023/07/06 08:06:46;;;;;;;8.80;6.18;;;640.70;2432.00;;;;;;5110527;28;20024;-82
2023/07/06 08:09:13;;;;;;;7.90;5.78;;;640.80;2432.00;;;;;;5095619;28;20491;-79
2023/07/06 08:11:45;;;;;;;12.48;6.70;;;;;;;;;;5111545;28;20479;-80
2023/07/06 08:14:11;;;;;;;16.65;6.38;;;640.90;2432.00;;;;;;5111167;28;20020;-80
2023/07/06 08:16:40;;;;;;;9.50;6.72;;;665.60;2432.00;;;;;;5110506;28;20024;-80
2023/07/06 08:19:07;;;;;;;8.65;5.82;;;665.60;2432.00;;;;;;5111390;28;20032;-80
2023/07/06 08:21:34;;;;;;;13.13;6.15;;;665.70;2432.00;;;;;;5094527;28;20073;-82
2023/07/06 08:24:00;;;;;;;10.95;5.10;;;666.00;2432.00;;;;;;5110616;28;20451;-82
2023/07/06 08:26:29;;;;;;;8.30;5.38;;;665.90;2432.00;;;;;;5110785;28;20073;-82
2023/07/06 08:28:55;;;;;;;5.47;4.22;;;;;;;;;;5094500;28;20562;-82
2023/07/06 08:31:21;;;;;;;10.63;4.57;;;666.20;2432.00;;;;;;5094714;28;20043;-79
2023/07/06 08:33:48;;;;;;;10.40;6.50;;;666.30;2432.00;;;;;;5110294;28;20478;-78
2023/07/06 08:36:16;;;;;;;8.13;6.07;;;666.50;2432.00;;;;;;5093592;28;20028;-79
2023/07/06 08:38:43;;;;;;;7.40;4.90;;;691.30;2432.00;;;;;;5110220;28;20403;-79
2023/07/06 08:41:31;;;;;;;16.38;12.20;;;691.30;2432.00;;;;;;5110688;28;20037;-79
2023/07/06 08:44:02;;;;;;;10.63;5.72;;;691.40;2432.00;;;;;;5094013;28;20482;-79
2023/07/06 08:46:41;;;;;;;12.70;4.70;;;691.60;2432.00;;;;;;5093811;28;20024;-79
2023/07/06 08:49:24;;;;;;;6.47;4.43;;;691.80;2432.00;;;;;;5108592;28;20024;-81
2023/07/06 08:51:52;;;;;;;10.40;5.10;;;691.80;2432.00;;;;;;5094105;28;20456;-79
2023/07/06 08:54:24;;;;;;;7.55;4.43;;;691.80;2432.00;;;;;;5110033;28;20035;-80
2023/07/06 08:56:50;;;;;;;9.82;4.20;;;691.60;2432.00;;;;;;5094033;28;20483;-80
2023/07/06 08:59:44;;;;;;;8.70;4.63;;;691.60;2432.00;;;;;;5109359;28;20020;-78
2023/07/06 09:02:09;;;;;;;5.07;3.95;;;691.90;2432.00;;;;;;5107818;28;20150;-79
2023/07/06 09:04:37;;;;;;;8.23;3.92;;;691.90;2432.00;;;;;;5092023;28;20318;-80
2023/07/06 09:07:04;;;;;;;5.80;3.60;;;691.70;2432.00;;;;;;5108701;28;20035;-80
2023/07/06 09:09:31;;;;;;;5.85;4.10;;;692.00;2432.00;;;;;;5108786;28;20055;-79
2023/07/06 09:11:58;;;;;;;4.43;3.42;;;691.90;2432.00;;;;;;5108855;28;20116;-80
2023/07/06 09:14:28;;;;;;;10.55;4.07;;;691.80;2432.00;;;;;;5109197;28;20024;-80
2023/07/06 09:16:56;;;;;;;13.57;4.68;;;716.80;2432.00;;;;;;5109438;28;20479;-78
2023/07/06 09:19:24;;;;;;;8.98;4.90;;;716.80;2432.00;;;;;;5109135;28;20028;-79
2023/07/06 09:21:55;;;;;;;9.05;3.92;;;717.40;2432.00;;;;;;5093847;28;20488;-80
2023/07/06 09:24:27;;;;;;;6.40;3.70;;;717.40;2432.00;;;;;;5109244;28;20029;-79
2023/07/06 09:26:57;;;;;;;13.38;4.25;;;716.90;2432.00;;;;;;5109448;28;20032;-80
2023/07/06 09:29:30;;;;;;;5.55;4.15;;;716.90;2432.00;;;;;;5109394;28;20472;-79
2023/07/06 09:32:10;;;;;;;11.60;4.22;;;717.20;2432.00;;;;;;5093314;28;20081;-78
2023/07/06 09:34:36;;;;;;;8.07;4.10;;;717.40;2432.00;;;;;;5109241;28;20028;-77
2023/07/06 09:37:03;;;;;;;8.38;3.88;;;742.40;2432.00;;;;;;5093165;28;20518;-78
2023/07/06 09:39:29;;;;;;;6.00;4.13;;;742.40;2432.00;;;;;;5109010;28;20031;-80
2023/07/06 09:41:57;;;;;;;7.57;3.95;;;742.60;2432.00;;;;;;5093572;28;20055;-77
2023/07/06 09:44:29;;;;;;;12.80;4.43;;;742.70;2432.00;;;;;;5093195;28;20024;-78
2023/07/06 09:47:00;;;;;;;8.75;3.92;;;742.80;2432.00;;;;;;5123469;28;20031;-79
2023/07/06 09:49:45;;;;;;;7.90;3.80;;;742.80;2432.00;;;;;;5098370;28;20116;-82
2023/07/06 09:52:15;;;;;;;10.02;4.00;;;743.00;2432.00;;;;;;5097312;28;20024;-80
2023/07/06 09:54:49;;;;;;;6.28;4.10;;;743.30;2432.00;;;;;;5113019;28;20032;-80
2023/07/06 09:57:15;;;;;;;10.73;4.15;;;743.10;2432.00;;;;;;5097440;28;20032;-83
2023/07/06 09:59:49;;;;;;;9.10;4.13;;;743.00;2432.00;;;;;;5113470;28;20024;-81
2023/07/06 10:02:33;;;;;;;8.05;3.85;;;743.10;2432.00;;;;;;5113437;28;20016;-80
2023/07/06 10:05:11;;;;;;;11.85;4.45;;;743.30;2432.00;;;;;;5097208;28;20024;-81
2023/07/06 10:08:00;;;;;;;10.63;5.30;;;768.00;2432.00;;;;;;5112775;28;20361;-79
2023/07/06 10:10:55;;;;;;;8.45;3.55;;;768.10;2432.00;;;;;;5097169;28;20028;-82
2023/07/06 10:13:31;;;;;;;7.80;5.63;;;743.30;2432.00;;;;;;5096886;28;20442;-82
2023/07/06 10:16:18;;;;;;;17.10;4.93;;;768.20;2432.00;;;;;;5112852;28;20056;-82
2023/07/06 10:19:01;;;;;;;9.20;4.22;;;768.60;2432.00;;;;;;5112731;28;20415;-81
2023/07/06 10:21:37;;;;;;;8.02;5.18;;;768.80;2432.00;;;;;;5096610;28;20056;-82
2023/07/06 10:24:26;;;;;;;7.60;4.38;;;768.90;2432.00;;;;;;5112670;28;20034;-81
2023/07/06 10:26:55;;;;;;;5.22;4.05;;;793.70;2432.00;;;;;;5112643;28;20020;-81
2023/07/06 10:29:41;;;;;;;7.50;4.03;;;793.60;2432.00;;;;;;5112377;28;20395;-82
2023/07/06 10:32:38;;;;;;;5.57;4.18;;;793.60;2432.00;;;;;;5112549;28;20082;-81
2023/07/06 10:35:14;;;;;;;7.25;4.20;;;768.90;2432.00;;;;;;5112106;28;20027;-83
2023/07/06 10:37:42;;;;;;;10.27;3.75;;;768.90;2432.00;;;;;;5112056;28;20131;-80
2023/07/06 10:40:27;;;;;;;5.25;3.17;;;793.80;2432.00;;;;;;5096283;28;20043;-81
2023/07/06 10:43:13;;;;;;;6.65;3.60;;;793.90;2355.20;;;;;;5112233;28;20031;-82
2023/07/06 10:45:42;;;;;;;4.90;3.22;;;793.70;2329.60;;;;;;5087516;28;20066;-79
2023/07/06 10:48:28;;;;;;;5.20;2.97;;;793.80;2278.40;;;;;;5112102;28;20036;-80
2023/07/06 10:51:12;;;;;;;5.15;3.40;;;794.00;2355.20;;;;;;5111974;28;20471;-78
2023/07/06 10:53:40;;;;;;;4.47;3.15;;;794.20;2406.40;;;;;;5112143;28;20162;-83
2023/07/06 10:56:12;;;;;;;4.60;3.10;;;794.40;2355.20;;;;;;5111651;28;20077;-80
2023/07/06 10:58:54;;;;;;;4.95;3.67;;;794.40;2355.20;;;;;;5112006;28;20032;-80
2023/07/06 11:01:23;;;;;;;4.75;3.40;;;794.40;2355.20;;;;;;5112082;28;20024;-81
2023/07/06 11:03:49;;;;;;;4.30;3.65;;;794.50;2304.00;;;;;;5095786;28;20489;-80
2023/07/06 11:06:51;;;;;;;6.68;3.83;;;819.50;2406.40;;;;;;5111716;28;20024;-80
2023/07/06 11:09:17;;;;;;;5.80;4.30;;;819.60;2380.80;;;;;;5094600;28;20083;-78
2023/07/06 11:12:05;;;;;;;5.90;3.90;;;819.90;2406.40;;;;;;5095690;28;20025;-80
2023/07/06 11:14:35;;;;;;;7.57;4.18;;;820.00;2355.20;;;;;;5096206;28;20028;-79
2023/07/06 11:17:13;;;;;;;10.52;3.80;;;820.10;2252.80;;;;;;5111348;28;20084;-80
2023/07/06 11:19:48;;;;;;;7.30;4.30;;;819.50;2252.80;;;;;;5111494;28;20361;-80
2023/07/06 11:22:18;;;;;;;5.32;3.92;;;819.20;2304.00;;;;;;5111544;28;20024;-80
2023/07/06 11:24:49;;;;;;;6.70;4.50;;;819.40;2278.40;;;;;;5111162;28;20035;-80
2023/07/06 11:27:31;;;;;;;5.13;4.18;;;819.60;2278.40;;;;;;5111500;28;20027;-81
2023/07/06 11:30:29;;;;;;;9.40;5.82;;;819.80;2278.40;;;;;;5111320;28;20063;-81
2023/07/06 11:33:24;;;;;;;9.80;7.57;;;820.10;2278.40;;;;;;5093816;28;20039;-79
2023/07/06 11:36:09;;;;;;;8.88;6.45;;;845.00;2304.00;;;;;;5089999;28;20540;-79
2023/07/06 11:38:44;;;;;;;6.97;6.28;;;845.10;2304.00;;;;;;5113926;28;20036;-79
2023/07/06 11:41:21;;;;;;;8.32;6.50;;;845.20;2304.00;;;;;;5095187;28;20052;-80
2023/07/06 11:43:59;;;;;;;8.30;6.15;;;845.30;2252.80;;;;;;5111370;28;20031;-79
2023/07/06 11:46:55;;;;;;;6.45;5.70;;;845.40;2329.60;;;;;;5110820;28;20028;-78
2023/07/06 11:49:40;;;;;;;12.25;6.13;;;845.40;2227.20;;;;;;5111023;28;20021;-79
2023/07/06 11:52:21;;;;;;;7.75;5.72;;;845.30;2227.20;;;;;;5110983;28;20085;-80
2023/07/06 11:55:18;;;;;;;6.32;5.70;;;845.20;2252.80;;;;;;5095618;28;20104;-81
2023/07/06 11:58:31;;;;;;;7.75;6.35;;;845.40;2176.00;;;;;;5110779;28;20035;-84
2023/07/06 12:01:21;;;;;;;6.95;6.25;;;845.40;2176.00;;;;;;5093963;28;20043;-81
2023/07/06 12:03:47;;;;;;;7.97;6.70;;;845.50;2252.80;;;;;;5110258;28;20529;-80
2023/07/06 12:06:18;;;;;;;10.07;8.02;;;845.20;2201.60;;;;;;5110568;28;20468;-78
2023/07/06 12:08:44;;;;;;;9.98;8.98;;;845.30;2278.40;;;;;;5110355;28;20048;-79
2023/07/06 12:11:19;;;;;;;10.45;8.30;;;845.30;2201.60;;;;;;5110267;28;20020;-78
2023/07/06 12:13:52;;;;;;;10.23;7.80;;;845.50;2201.60;;;;;;5094429;28;20069;-78
2023/07/06 12:16:33;;;;;;;7.55;6.85;;;845.70;2252.80;;;;;;5094894;28;20030;-80
2023/07/06 12:19:04;;;;;;;8.37;7.50;;;845.40;2201.60;;;;;;5094664;28;20028;-81
2023/07/06 12:21:33;;;;;;;8.27;7.40;;;845.50;2252.80;;;;;;5094479;28;20115;-78
2023/07/06 12:24:06;;;;;;;8.15;7.35;;;845.20;2278.40;;;;;;5110359;28;20429;-80
2023/07/06 12:26:34;;;;;;;9.02;7.97;;;844.90;2176.00;;;;;;5103733;28;20433;-79
2023/07/06 12:29:03;;;;;;;15.02;8.65;;;819.90;2176.00;;;;;;5074920;28;20036;-80
2023/07/06 12:31:31;;;;;;;8.65;7.85;;;819.80;2176.00;;;;;;5110034;28;20403;-80